• Join FlightAware (Why Join?)
  • Login
  • US Flag 
04:20PM EST


 

Airport Tracker/Info


-or-


 

Live Flight TrackerFlight Track Log ✈ UAL4336 ✈ 20-May-2013 ✈ KCMH - KIAH

Flight Track Log - Related Links

Times and Time Zones

All times are in EDT time to prevent confusion due to time zone crossing. See the UAL4336 flight status page for this flight to view local times or setup timezone preferences in your user account.

Time Position Orientation Groundspeed Altitude Reporting Facility
EDT Latitude Longitude Course Direction KTS MPH feet Rate Location/Type
06:21AM 40.0011 -82.8692 270° West 179 206 1,200  Level Indianapolis Center
06:22AM 40.0006 -82.7847 90° East 227 261 3,400 1,920 Climbing Indianapolis Center
06:23AM 40.0389 -82.7428 40° Northeast 253 291 5,300 1,920 Climbing Indianapolis Center
06:24AM 40.0000 -83.2962 270° West  Level FlightAware Approximate
06:24AM 40.0531 -82.8369 281° West 255 293 7,800  Level Indianapolis Center
06:25AM 40.0000 -83.4346 270° West  Level FlightAware Approximate
06:25AM 40.0578 -82.9317 274° West 260 299 10,000  Level Indianapolis Center
06:26AM 40.0000 -83.5730 270° West  Level FlightAware Approximate
06:26AM 40.0542 -83.0442 268° West 309 356 10,700  Level Indianapolis Center
06:27AM 40.0078 -83.1550 241° Southwest 345 397 12,200 1,440 Climbing Indianapolis Center
06:28AM 39.9594 -83.2703 241° Southwest 358 412 13,700 1,560 Climbing Indianapolis Center
06:29AM 39.9017 -83.4081 241° Southwest 369 425 15,400 1,500 Climbing Indianapolis Center
06:30AM 39.8619 -83.5181 245° Southwest 374 430 16,800 1,380 Climbing Indianapolis Center
06:31AM 39.8186 -83.6561 248° West 384 442 18,300 1,380 Climbing Indianapolis Center
06:32AM 39.7686 -83.7769 242° Southwest 380 437 19,700 1,200 Climbing Indianapolis Center
06:33AM 39.7153 -83.8994 241° Southwest 384 442 20,800 960 Climbing Indianapolis Center
06:34AM 39.6592 -84.0275 240° Southwest 402 463 21,700 900 Climbing Indianapolis Center
06:35AM 39.6028 -84.1561 240° Southwest 406 467 22,700 960 Climbing Indianapolis Center
06:36AM 39.5461 -84.2878 241° Southwest 415 478 23,700 960 Climbing Indianapolis Center
06:37AM 39.4875 -84.4189 240° Southwest 417 480 24,700 900 Climbing Indianapolis Center
06:38AM 39.4286 -84.5506 240° Southwest 419 482 25,600 900 Climbing Indianapolis Center
06:39AM 39.3711 -84.6814 240° Southwest 416 479 26,600 960 Climbing Indianapolis Center
06:40AM 39.3128 -84.8111 240° Southwest 414 476 27,600 960 Climbing Indianapolis Center
06:41AM 39.2581 -84.9333 240° Southwest 411 473 28,600 900 Climbing Indianapolis Center
06:42AM 39.2014 -85.0603 240° Southwest 408 470 29,500 900 Climbing Indianapolis Center
06:44AM 39.1442 -85.1869 240° Southwest 408 470 30,500 900 Climbing Indianapolis Center
06:45AM 39.0858 -85.3133 239° Southwest 409 471 31,400 900 Climbing Indianapolis Center
06:46AM 39.0283 -85.4422 240° Southwest 413 475 32,400 960 Climbing Indianapolis Center
06:47AM 38.9686 -85.5694 239° Southwest 415 478 33,400 900 Climbing Indianapolis Center
06:48AM 38.9106 -85.6992 240° Southwest 418 481 34,300 1,020 Climbing Indianapolis Center
06:49AM 38.8397 -85.8494 239° Southwest 412 474 35,500 780 Climbing Indianapolis Center
06:50AM 38.7817 -85.9753 239° Southwest 408 470 36,000 240 Climbing Indianapolis Center
06:51AM 38.7225 -86.1044 240° Southwest 414 476 36,000  Level Indianapolis Center
06:52AM 38.6597 -86.2389 239° Southwest 435 501 36,000  Level Indianapolis Center
06:53AM 38.5942 -86.3744 238° Southwest 444 511 36,000  Level Indianapolis Center
06:54AM 38.5200 -86.5081 235° Southwest 457 526 36,000  Level Indianapolis Center
06:55AM 38.4392 -86.6356 231° Southwest 459 528 36,000  Level Indianapolis Center
06:56AM 38.3600 -86.7619 231° Southwest 455 524 36,000  Level Indianapolis Center
06:57AM 38.2797 -86.8886 231° Southwest 452 520 36,000  Level Indianapolis Center
06:58AM 38.2056 -87.0097 232° Southwest 454 522 36,000  Level Indianapolis Center
06:59AM 38.1189 -87.1453 231° Southwest 448 516 36,000  Level Indianapolis Center
07:00AM 38.0417 -87.2681 231° Southwest 442 509 36,000  Level Indianapolis Center
07:01AM 37.9636 -87.3900 231° Southwest 441 507 36,000  Level Indianapolis Center
07:02AM 37.8864 -87.5117 231° Southwest 441 507 36,000  Level Indianapolis Center
07:03AM 37.8086 -87.6336 231° Southwest 443 510 36,000  Level Indianapolis Center
07:04AM 37.7350 -87.7467 231° Southwest 442 509 36,000  Level Indianapolis Center
07:05AM 37.6561 -87.8681 231° Southwest 443 510 36,000  Level Indianapolis Center
07:05AM 37.6186 -87.9381 236° Southwest 452 520 36,000  Level Memphis Center
07:06AM 37.5375 -88.0581 230° Southwest 452 520 36,000  Level Memphis Center
07:07AM 37.4628 -88.1806 232° Southwest 452 520 36,000  Level Memphis Center
07:08AM 37.4197 -88.2319 223° Southwest 443 510 36,000  Level Indianapolis Center
07:09AM 37.3392 -88.3536 230° Southwest 448 516 36,000  Level Indianapolis Center
07:09AM 37.3022 -88.4197 235° Southwest 452 520 36,000  Level Memphis Center
07:10AM 37.2247 -88.5386 231° Southwest 452 520 36,000  Level Memphis Center
07:11AM 37.1431 -88.6603 230° Southwest 452 520 36,000  Level Memphis Center
07:12AM 37.0636 -88.7817 231° Southwest 452 520 36,000  Level Memphis Center
07:13AM 36.9817 -88.9025 230° Southwest 452 520 36,000  Level Memphis Center
07:14AM 36.9017 -89.0233 230° Southwest 452 520 36,000  Level Memphis Center
07:15AM 36.8175 -89.1467 230° Southwest 452 520 36,000  Level Memphis Center
07:16AM 36.7353 -89.2694 230° Southwest 457 526 36,000  Level Memphis Center
07:17AM 36.6550 -89.3922 231° Southwest 457 526 36,000  Level Memphis Center
07:18AM 36.5728 -89.5172 231° Southwest 457 526 36,000  Level Memphis Center
07:19AM 36.4858 -89.6342 227° Southwest 462 532 36,000  Level Memphis Center
07:20AM 36.4053 -89.7511 229° Southwest 462 532 36,000  Level Memphis Center
07:21AM 36.3328 -89.8572 230° Southwest 462 532 36,000  Level Memphis Center
07:22AM 36.2517 -89.9736 229° Southwest 462 532 36,000  Level Memphis Center
07:23AM 36.1708 -90.0869 229° Southwest 462 532 36,000  Level Memphis Center
07:24AM 36.0897 -90.2056 230° Southwest 457 526 36,000  Level Memphis Center
07:25AM 36.0106 -90.3186 229° Southwest 457 526 36,000  Level Memphis Center
07:26AM 35.9272 -90.4339 228° Southwest 457 526 36,000  Level Memphis Center
07:27AM 35.8414 -90.5619 230° Southwest 452 520 36,000  Level Memphis Center
07:28AM 35.7600 -90.6767 229° Southwest 447 514 36,000  Level Memphis Center
07:29AM 35.6844 -90.7914 231° Southwest 447 514 36,000  Level Memphis Center
07:30AM 35.6006 -90.9061 228° Southwest 447 514 36,000  Level Memphis Center
07:31AM 35.5250 -91.0153 230° Southwest 447 514 36,000  Level Memphis Center
07:32AM 35.4453 -91.1292 229° Southwest 447 514 36,000  Level Memphis Center
07:33AM 35.3717 -91.2228 226° Southwest 447 514 36,000  Level Memphis Center
07:34AM 35.2936 -91.3339 229° Southwest 441 507 36,000  Level Memphis Center
07:35AM 35.2133 -91.4422 228° Southwest 436 502 36,000  Level Memphis Center
07:36AM 35.1331 -91.5531 228° Southwest 436 502 36,000  Level Memphis Center
07:37AM 35.0569 -91.6636 230° Southwest 436 502 36,000  Level Memphis Center
07:38AM 34.9764 -91.7711 228° Southwest 436 502 36,000  Level Memphis Center
07:39AM 34.8714 -91.8353 207° Southwest 418 481 36,000  Level Memphis Center
07:40AM 34.7622 -91.8814 199° South 418 481 36,000  Level Memphis Center
07:41AM 34.6469 -91.9300 199° South 429 494 36,000  Level Memphis Center
07:42AM 34.5339 -91.9733 198° South 434 499 36,000 -300 Level Memphis Center
07:43AM 34.4078 -92.0236 198° South 434 499 35,400 -840 Descending Memphis Center
07:44AM 34.2903 -92.0717 199° South 439 505 34,400 -420 Descending Memphis Center
07:47AM 34.0122 -92.1844 199° South 443 510 34,000 -120 Descending Fort Worth Center
07:48AM 33.8931 -92.2292 197° South 443 510 34,000  Level Fort Worth Center
07:49AM 33.7719 -92.2764 198° South 449 517 34,000  Level Fort Worth Center
07:50AM 33.6528 -92.3233 198° South 454 522 34,000  Level Fort Worth Center
07:51AM 33.5317 -92.3700 198° South 454 522 34,000  Level Fort Worth Center
07:52AM 33.4144 -92.4117 197° South 449 517 34,000  Level Fort Worth Center
07:53AM 33.2903 -92.4386 190° South 449 517 34,000  Level Fort Worth Center
07:54AM 33.1636 -92.4606 188° South 455 524 34,000  Level Fort Worth Center
07:56AM 32.9067 -92.5083 189° South 452 520 34,000  Level Houston Center
07:57AM 32.7808 -92.5122 181° South 453 521 34,000  Level Houston Center
07:58AM 32.6536 -92.5067 178° South 457 526 34,000  Level Houston Center
07:59AM 32.5119 -92.5272 187° South 460 529 34,000  Level Houston Center
08:00AM 32.3900 -92.5606 193° South 453 521 34,000  Level Houston Center
08:01AM 32.2667 -92.5947 193° South 454 522 34,000  Level Houston Center
08:02AM 32.1428 -92.6311 194° South 458 527 34,000  Level Houston Center
08:03AM 32.0181 -92.6639 193° South 460 529 34,000  Level Houston Center
08:04AM 31.9117 -92.7378 211° Southwest 448 516 34,000  Level Houston Center
08:05AM 31.8153 -92.8297 219° Southwest 447 514 34,000  Level Houston Center
08:06AM 31.7194 -92.9233 220° Southwest 448 516 34,000  Level Houston Center
08:07AM 31.6039 -93.0342 219° Southwest 449 517 34,000  Level Houston Center
08:08AM 31.5083 -93.1264 219° Southwest 447 514 34,000  Level Houston Center
08:09AM 31.4119 -93.2186 219° Southwest 448 516 34,000 -120 Level Houston Center
08:10AM 31.3142 -93.3119 219° Southwest 439 505 33,800 -840 Descending Houston Center
08:11AM 31.2242 -93.3981 219° Southwest 436 502 32,300 -1,500 Descending Houston Center
08:12AM 31.1617 -93.5125 237° Southwest 417 480 30,800 -1,500 Descending Houston Center
08:13AM 31.0931 -93.6214 234° Southwest 419 482 29,300 -1,440 Descending Houston Center
08:14AM 30.9981 -93.7036 217° Southwest 425 489 27,900 -1,620 Descending Houston Center
08:15AM 30.8836 -93.7997 216° Southwest 426 490 26,100 -1,680 Descending Houston Center
08:16AM 30.7897 -93.8775 215° Southwest 420 483 24,600 -1,500 Descending Houston Center
08:17AM 30.6997 -93.9531 216° Southwest 408 470 23,100 -1,860 Descending Houston Center
08:18AM 30.6114 -94.0236 215° Southwest 393 452 20,900 -2,220 Descending Houston Center
08:19AM 30.5275 -94.0944 216° Southwest 380 437 18,600 -2,400 Descending Houston Center
08:20AM 30.4836 -94.1281 213° Southwest 370 426 17,600 -1,980 Descending Houston Center
08:20AM 30.4442 -94.1617 216° Southwest 369 425 16,600 -1,980 Descending Houston Center
08:21AM 30.4022 -94.1947 214° Southwest 373 429 15,600 -2,100 Descending Houston Center
08:21AM 30.3586 -94.2319 216° Southwest 376 433 14,500 -1,980 Descending Houston Center
08:22AM 30.3128 -94.2694 215° Southwest 371 427 13,600 -1,860 Descending Houston Center
08:22AM 30.2600 -94.3150 217° Southwest 367 422 12,600 -1,500 Descending Houston Center
08:23AM 30.2369 -94.3522 234° Southwest 379 436 12,100 -600 Descending Houston Center
08:23AM 30.2094 -94.4181 244° Southwest 375 432 12,000 -540 Descending Houston Center
08:24AM 30.1928 -94.4572 244° Southwest 366 421 11,600 -1,140 Descending Houston Center
08:24AM 30.1664 -94.5183 243° Southwest 367 422 10,900 -1,320 Descending Houston Center
08:25AM 30.1447 -94.5672 243° Southwest 367 422 10,300 -900 Descending Houston Center
08:25AM 30.1219 -94.6192 243° Southwest 356 410 10,000 -300 Descending Houston Center
08:26AM 30.1031 -94.6572 240° Southwest 282 325 10,000 -600 Level Houston Center
08:26AM 30.0772 -94.6892 227° Southwest 281 323 9,400 -1,320 Descending Houston Center
08:27AM 30.0481 -94.7200 222° Southwest 278 320 8,700 -1,200 Descending Houston Center
08:27AM 30.0233 -94.7492 226° Southwest 270 311 8,200 -1,080 Descending Houston Center
08:28AM 30.0050 -94.7761 232° Southwest 222 255 7,600 -1,200 Descending Houston Center
08:29AM 29.9956 -94.8258 258° West 225 259 7,000 -540 Descending Houston Center
08:29AM 29.9933 -94.8500 264° West 226 260 7,100  Climbing Houston Center
08:30AM 29.9936 -94.8975 270° West 224 258 7,000 -120 Descending Houston Center
08:30AM 29.9942 -94.9247 271° West 233 268 7,000 -720 Level Houston Center
08:31AM 29.9931 -94.9686 268° West 222 255 6,300 -1,140 Descending Houston Center
08:31AM 29.9942 -94.9922 273° West 199 229 5,900 -1,200 Descending Houston Center
08:32AM 29.9964 -95.0308 274° West 204 235 5,100 -1,380 Descending Houston Center
08:32AM 29.9942 -95.0597 265° West 206 237 4,500 -1,080 Descending Houston Center
08:33AM 29.9936 -95.0967 269° West 201 231 4,000 -900 Descending Houston Center
08:34AM 29.9931 -95.1603 269° West 200 230 3,000 -1,080 Descending Houston Center
08:35AM 29.9953 -95.2239 272° West 200 230 1,900 -1,080 Descending Houston Center